sensor_id;sensor_type;location;lat;lon;timestamp;P1;durP1;ratioP1;P2;durP2;ratioP2
5052;SDS011;2545;50.892;5.740;2023-05-10T00:01:00;32.90;;;17.83;;
5052;SDS011;2545;50.892;5.740;2023-05-10T00:03:26;32.57;;;18.03;;
5052;SDS011;2545;50.892;5.740;2023-05-10T00:05:51;36.77;;;17.20;;
5052;SDS011;2545;50.892;5.740;2023-05-10T00:08:16;27.77;;;17.17;;
5052;SDS011;2545;50.892;5.740;2023-05-10T00:10:41;22.80;;;14.90;;
5052;SDS011;2545;50.892;5.740;2023-05-10T00:13:07;21.00;;;13.57;;
5052;SDS011;2545;50.892;5.740;2023-05-10T00:15:32;17.40;;;12.30;;
5052;SDS011;2545;50.892;5.740;2023-05-10T00:17:57;21.50;;;12.07;;
5052;SDS011;2545;50.892;5.740;2023-05-10T00:20:23;17.60;;;13.13;;
5052;SDS011;2545;50.892;5.740;2023-05-10T00:22:48;22.80;;;12.90;;
5052;SDS011;2545;50.892;5.740;2023-05-10T00:25:13;20.10;;;12.80;;
5052;SDS011;2545;50.892;5.740;2023-05-10T00:27:39;18.27;;;12.17;;
5052;SDS011;2545;50.892;5.740;2023-05-10T00:30:04;21.63;;;12.77;;
5052;SDS011;2545;50.892;5.740;2023-05-10T00:32:31;20.00;;;12.30;;
5052;SDS011;2545;50.892;5.740;2023-05-10T00:34:56;21.80;;;12.00;;
5052;SDS011;2545;50.892;5.740;2023-05-10T00:37:22;16.40;;;10.57;;
5052;SDS011;2545;50.892;5.740;2023-05-10T00:39:48;23.87;;;12.70;;
5052;SDS011;2545;50.892;5.740;2023-05-10T00:42:13;16.93;;;11.67;;
5052;SDS011;2545;50.892;5.740;2023-05-10T00:44:38;18.63;;;11.57;;
5052;SDS011;2545;50.892;5.740;2023-05-10T00:47:03;20.90;;;12.83;;
5052;SDS011;2545;50.892;5.740;2023-05-10T00:49:29;21.90;;;11.63;;
5052;SDS011;2545;50.892;5.740;2023-05-10T00:51:54;19.17;;;11.30;;
5052;SDS011;2545;50.892;5.740;2023-05-10T00:54:20;20.80;;;12.50;;
5052;SDS011;2545;50.892;5.740;2023-05-10T00:56:46;23.10;;;13.10;;
5052;SDS011;2545;50.892;5.740;2023-05-10T00:59:16;19.93;;;11.00;;
5052;SDS011;2545;50.892;5.740;2023-05-10T01:01:43;20.47;;;12.83;;
5052;SDS011;2545;50.892;5.740;2023-05-10T01:04:10;22.97;;;12.90;;
5052;SDS011;2545;50.892;5.740;2023-05-10T01:06:37;19.53;;;12.27;;
5052;SDS011;2545;50.892;5.740;2023-05-10T01:09:02;17.87;;;12.30;;
5052;SDS011;2545;50.892;5.740;2023-05-10T01:11:28;18.50;;;12.00;;
5052;SDS011;2545;50.892;5.740;2023-05-10T01:13:55;21.87;;;11.83;;
5052;SDS011;2545;50.892;5.740;2023-05-10T01:16:22;19.00;;;11.73;;
5052;SDS011;2545;50.892;5.740;2023-05-10T01:18:49;14.63;;;9.90;;
5052;SDS011;2545;50.892;5.740;2023-05-10T01:21:31;16.83;;;10.67;;
5052;SDS011;2545;50.892;5.740;2023-05-10T01:35:00;18.57;;;10.57;;
5052;SDS011;2545;50.892;5.740;2023-05-10T01:40:39;14.10;;;9.90;;
5052;SDS011;2545;50.892;5.740;2023-05-10T01:43:17;14.60;;;10.87;;
5052;SDS011;2545;50.892;5.740;2023-05-10T01:45:56;16.40;;;9.23;;
5052;SDS011;2545;50.892;5.740;2023-05-10T01:48:26;17.10;;;9.97;;
5052;SDS011;2545;50.892;5.740;2023-05-10T01:50:53;18.23;;;9.87;;
5052;SDS011;2545;50.892;5.740;2023-05-10T01:53:21;14.37;;;10.30;;
5052;SDS011;2545;50.892;5.740;2023-05-10T01:55:48;19.77;;;10.30;;
5052;SDS011;2545;50.892;5.740;2023-05-10T01:58:19;23.03;;;11.20;;
5052;SDS011;2545;50.892;5.740;2023-05-10T02:00:47;15.00;;;9.87;;
5052;SDS011;2545;50.892;5.740;2023-05-10T02:03:15;17.37;;;11.93;;
5052;SDS011;2545;50.892;5.740;2023-05-10T02:05:43;21.67;;;10.97;;
5052;SDS011;2545;50.892;5.740;2023-05-10T02:08:10;25.83;;;11.80;;
5052;SDS011;2545;50.892;5.740;2023-05-10T02:10:37;20.83;;;11.53;;
5052;SDS011;2545;50.892;5.740;2023-05-10T02:13:05;21.83;;;12.07;;
5052;SDS011;2545;50.892;5.740;2023-05-10T02:15:32;19.53;;;11.37;;
5052;SDS011;2545;50.892;5.740;2023-05-10T02:17:59;21.47;;;12.50;;
5052;SDS011;2545;50.892;5.740;2023-05-10T02:20:25;21.57;;;10.50;;
5052;SDS011;2545;50.892;5.740;2023-05-10T02:22:52;12.97;;;10.50;;
5052;SDS011;2545;50.892;5.740;2023-05-10T02:25:20;21.83;;;11.73;;
5052;SDS011;2545;50.892;5.740;2023-05-10T02:27:47;19.97;;;11.87;;
5052;SDS011;2545;50.892;5.740;2023-05-10T02:30:13;18.97;;;10.47;;
5052;SDS011;2545;50.892;5.740;2023-05-10T02:32:40;20.50;;;11.27;;
5052;SDS011;2545;50.892;5.740;2023-05-10T02:35:07;23.27;;;11.17;;
5052;SDS011;2545;50.892;5.740;2023-05-10T02:37:35;26.60;;;13.20;;
5052;SDS011;2545;50.892;5.740;2023-05-10T02:40:02;22.63;;;12.00;;
5052;SDS011;2545;50.892;5.740;2023-05-10T02:42:31;24.27;;;13.50;;
5052;SDS011;2545;50.892;5.740;2023-05-10T02:45:00;20.87;;;11.20;;
5052;SDS011;2545;50.892;5.740;2023-05-10T02:47:28;22.83;;;13.10;;
5052;SDS011;2545;50.892;5.740;2023-05-10T02:49:54;24.00;;;11.80;;
5052;SDS011;2545;50.892;5.740;2023-05-10T02:52:24;27.83;;;13.13;;
5052;SDS011;2545;50.892;5.740;2023-05-10T02:54:54;19.47;;;12.90;;
5052;SDS011;2545;50.892;5.740;2023-05-10T02:57:27;32.30;;;14.90;;
5052;SDS011;2545;50.892;5.740;2023-05-10T02:59:57;31.70;;;13.83;;
5052;SDS011;2545;50.892;5.740;2023-05-10T03:02:23;18.70;;;13.00;;
5052;SDS011;2545;50.892;5.740;2023-05-10T03:04:48;25.67;;;14.50;;
5052;SDS011;2545;50.892;5.740;2023-05-10T03:07:14;24.93;;;14.80;;
5052;SDS011;2545;50.892;5.740;2023-05-10T03:09:39;26.43;;;14.00;;
5052;SDS011;2545;50.892;5.740;2023-05-10T03:12:14;32.43;;;14.40;;
5052;SDS011;2545;50.892;5.740;2023-05-10T03:20:28;29.73;;;15.87;;
5052;SDS011;2545;50.892;5.740;2023-05-10T03:23:00;49.27;;;16.40;;
5052;SDS011;2545;50.892;5.740;2023-05-10T03:25:30;36.33;;;18.13;;
5052;SDS011;2545;50.892;5.740;2023-05-10T03:27:56;42.90;;;19.57;;
5052;SDS011;2545;50.892;5.740;2023-05-10T03:30:22;38.67;;;20.20;;
5052;SDS011;2545;50.892;5.740;2023-05-10T03:32:49;35.33;;;17.43;;
5052;SDS011;2545;50.892;5.740;2023-05-10T03:35:14;46.43;;;18.60;;
5052;SDS011;2545;50.892;5.740;2023-05-10T03:37:40;38.77;;;19.00;;
5052;SDS011;2545;50.892;5.740;2023-05-10T03:40:05;44.60;;;19.00;;
5052;SDS011;2545;50.892;5.740;2023-05-10T03:42:31;46.77;;;19.27;;
5052;SDS011;2545;50.892;5.740;2023-05-10T03:44:56;31.20;;;18.20;;
5052;SDS011;2545;50.892;5.740;2023-05-10T03:47:22;45.27;;;18.30;;
5052;SDS011;2545;50.892;5.740;2023-05-10T03:49:47;39.87;;;17.30;;
5052;SDS011;2545;50.892;5.740;2023-05-10T03:52:12;35.43;;;17.70;;
5052;SDS011;2545;50.892;5.740;2023-05-10T03:54:39;36.40;;;16.97;;
5052;SDS011;2545;50.892;5.740;2023-05-10T03:57:04;34.60;;;17.70;;
5052;SDS011;2545;50.892;5.740;2023-05-10T03:59:29;43.33;;;19.23;;
5052;SDS011;2545;50.892;5.740;2023-05-10T04:01:55;33.93;;;18.30;;
5052;SDS011;2545;50.892;5.740;2023-05-10T04:04:20;43.47;;;19.07;;
5052;SDS011;2545;50.892;5.740;2023-05-10T04:06:46;36.13;;;16.73;;
5052;SDS011;2545;50.892;5.740;2023-05-10T04:09:12;41.90;;;19.10;;
5052;SDS011;2545;50.892;5.740;2023-05-10T04:11:37;42.40;;;19.03;;
5052;SDS011;2545;50.892;5.740;2023-05-10T04:14:03;35.70;;;18.37;;
5052;SDS011;2545;50.892;5.740;2023-05-10T04:16:28;41.10;;;19.00;;
5052;SDS011;2545;50.892;5.740;2023-05-10T04:18:53;36.10;;;18.70;;
5052;SDS011;2545;50.892;5.740;2023-05-10T04:21:19;41.07;;;19.70;;
5052;SDS011;2545;50.892;5.740;2023-05-10T04:23:44;55.10;;;21.83;;
5052;SDS011;2545;50.892;5.740;2023-05-10T04:26:09;37.70;;;19.30;;
5052;SDS011;2545;50.892;5.740;2023-05-10T04:28:35;45.13;;;21.30;;
5052;SDS011;2545;50.892;5.740;2023-05-10T04:31:09;40.63;;;20.70;;
5052;SDS011;2545;50.892;5.740;2023-05-10T04:33:35;54.17;;;22.57;;
5052;SDS011;2545;50.892;5.740;2023-05-10T04:36:01;53.37;;;21.70;;
5052;SDS011;2545;50.892;5.740;2023-05-10T04:38:27;42.00;;;18.90;;
5052;SDS011;2545;50.892;5.740;2023-05-10T04:40:53;55.50;;;23.93;;
5052;SDS011;2545;50.892;5.740;2023-05-10T04:43:19;41.90;;;18.87;;
5052;SDS011;2545;50.892;5.740;2023-05-10T04:45:45;28.83;;;18.17;;
5052;SDS011;2545;50.892;5.740;2023-05-10T04:48:10;29.40;;;17.83;;
5052;SDS011;2545;50.892;5.740;2023-05-10T04:50:36;37.43;;;18.80;;
5052;SDS011;2545;50.892;5.740;2023-05-10T04:53:01;32.03;;;17.27;;
5052;SDS011;2545;50.892;5.740;2023-05-10T04:55:26;36.77;;;18.20;;
5052;SDS011;2545;50.892;5.740;2023-05-10T04:57:52;37.10;;;17.77;;
5052;SDS011;2545;50.892;5.740;2023-05-10T05:00:18;31.30;;;18.00;;
5052;SDS011;2545;50.892;5.740;2023-05-10T05:02:44;36.33;;;18.33;;
5052;SDS011;2545;50.892;5.740;2023-05-10T05:05:10;38.03;;;18.97;;
5052;SDS011;2545;50.892;5.740;2023-05-10T05:07:36;35.80;;;17.70;;
5052;SDS011;2545;50.892;5.740;2023-05-10T05:10:03;39.17;;;18.87;;
5052;SDS011;2545;50.892;5.740;2023-05-10T05:12:31;34.47;;;19.07;;
5052;SDS011;2545;50.892;5.740;2023-05-10T05:14:57;45.33;;;19.80;;
5052;SDS011;2545;50.892;5.740;2023-05-10T05:17:22;35.10;;;19.20;;
5052;SDS011;2545;50.892;5.740;2023-05-10T05:19:47;41.80;;;19.00;;
5052;SDS011;2545;50.892;5.740;2023-05-10T05:22:13;29.63;;;17.87;;
5052;SDS011;2545;50.892;5.740;2023-05-10T05:24:38;33.87;;;17.70;;
5052;SDS011;2545;50.892;5.740;2023-05-10T05:27:03;31.13;;;17.67;;
5052;SDS011;2545;50.892;5.740;2023-05-10T05:29:29;40.23;;;19.07;;
5052;SDS011;2545;50.892;5.740;2023-05-10T05:31:54;32.43;;;14.00;;
5052;SDS011;2545;50.892;5.740;2023-05-10T05:34:20;23.13;;;13.00;;
5052;SDS011;2545;50.892;5.740;2023-05-10T05:36:46;20.73;;;13.50;;
5052;SDS011;2545;50.892;5.740;2023-05-10T05:39:12;19.67;;;12.63;;
5052;SDS011;2545;50.892;5.740;2023-05-10T05:41:37;21.30;;;12.40;;
5052;SDS011;2545;50.892;5.740;2023-05-10T05:44:03;24.40;;;12.20;;
5052;SDS011;2545;50.892;5.740;2023-05-10T05:46:28;22.20;;;12.20;;
5052;SDS011;2545;50.892;5.740;2023-05-10T05:48:53;23.60;;;11.70;;
5052;SDS011;2545;50.892;5.740;2023-05-10T05:51:19;24.03;;;10.30;;
5052;SDS011;2545;50.892;5.740;2023-05-10T05:53:44;20.97;;;11.60;;
5052;SDS011;2545;50.892;5.740;2023-05-10T05:56:10;24.40;;;11.37;;
5052;SDS011;2545;50.892;5.740;2023-05-10T05:58:35;16.30;;;11.37;;
5052;SDS011;2545;50.892;5.740;2023-05-10T06:01:00;14.27;;;9.47;;
5052;SDS011;2545;50.892;5.740;2023-05-10T06:03:26;17.57;;;10.60;;
5052;SDS011;2545;50.892;5.740;2023-05-10T06:05:51;13.77;;;8.90;;
5052;SDS011;2545;50.892;5.740;2023-05-10T06:08:16;11.30;;;7.90;;
5052;SDS011;2545;50.892;5.740;2023-05-10T06:10:42;14.07;;;9.27;;
5052;SDS011;2545;50.892;5.740;2023-05-10T06:13:07;16.87;;;10.10;;
5052;SDS011;2545;50.892;5.740;2023-05-10T06:15:32;15.73;;;9.40;;
5052;SDS011;2545;50.892;5.740;2023-05-10T06:17:58;16.13;;;9.83;;
5052;SDS011;2545;50.892;5.740;2023-05-10T06:20:23;16.63;;;10.07;;
5052;SDS011;2545;50.892;5.740;2023-05-10T06:22:48;17.30;;;11.10;;
5052;SDS011;2545;50.892;5.740;2023-05-10T06:25:14;16.40;;;10.70;;
5052;SDS011;2545;50.892;5.740;2023-05-10T06:27:39;25.83;;;11.93;;
5052;SDS011;2545;50.892;5.740;2023-05-10T06:30:05;26.43;;;13.73;;
5052;SDS011;2545;50.892;5.740;2023-05-10T06:32:31;29.80;;;15.37;;
5052;SDS011;2545;50.892;5.740;2023-05-10T06:34:56;36.10;;;19.13;;
5052;SDS011;2545;50.892;5.740;2023-05-10T06:37:22;45.93;;;19.87;;
5052;SDS011;2545;50.892;5.740;2023-05-10T06:39:47;52.13;;;20.90;;
5052;SDS011;2545;50.892;5.740;2023-05-10T06:42:12;48.87;;;23.17;;
5052;SDS011;2545;50.892;5.740;2023-05-10T06:44:37;55.90;;;24.77;;
5052;SDS011;2545;50.892;5.740;2023-05-10T06:47:03;60.80;;;25.70;;
5052;SDS011;2545;50.892;5.740;2023-05-10T06:49:28;49.67;;;23.97;;
5052;SDS011;2545;50.892;5.740;2023-05-10T06:51:55;56.77;;;25.50;;
5052;SDS011;2545;50.892;5.740;2023-05-10T06:54:20;49.60;;;22.27;;
5052;SDS011;2545;50.892;5.740;2023-05-10T06:56:46;47.97;;;22.03;;
5052;SDS011;2545;50.892;5.740;2023-05-10T06:59:11;41.10;;;22.80;;
5052;SDS011;2545;50.892;5.740;2023-05-10T07:01:38;48.73;;;20.80;;
5052;SDS011;2545;50.892;5.740;2023-05-10T07:04:03;40.00;;;21.70;;
5052;SDS011;2545;50.892;5.740;2023-05-10T07:06:29;44.60;;;21.23;;
5052;SDS011;2545;50.892;5.740;2023-05-10T07:08:54;38.23;;;19.03;;
5052;SDS011;2545;50.892;5.740;2023-05-10T07:11:20;39.50;;;19.47;;
5052;SDS011;2545;50.892;5.740;2023-05-10T07:13:45;45.10;;;18.80;;
5052;SDS011;2545;50.892;5.740;2023-05-10T07:16:11;37.83;;;19.00;;
5052;SDS011;2545;50.892;5.740;2023-05-10T07:18:37;48.43;;;19.83;;
5052;SDS011;2545;50.892;5.740;2023-05-10T07:21:02;44.03;;;18.10;;
5052;SDS011;2545;50.892;5.740;2023-05-10T07:23:28;35.10;;;18.60;;
5052;SDS011;2545;50.892;5.740;2023-05-10T07:25:53;36.80;;;19.27;;
5052;SDS011;2545;50.892;5.740;2023-05-10T07:28:19;55.23;;;21.03;;
5052;SDS011;2545;50.892;5.740;2023-05-10T07:30:44;44.40;;;20.37;;
5052;SDS011;2545;50.892;5.740;2023-05-10T07:33:11;40.17;;;20.23;;
5052;SDS011;2545;50.892;5.740;2023-05-10T07:35:38;41.83;;;19.40;;
5052;SDS011;2545;50.892;5.740;2023-05-10T07:38:03;35.17;;;19.73;;
5052;SDS011;2545;50.892;5.740;2023-05-10T07:40:28;41.13;;;19.60;;
5052;SDS011;2545;50.892;5.740;2023-05-10T07:42:54;38.90;;;18.20;;
5052;SDS011;2545;50.892;5.740;2023-05-10T07:45:20;38.50;;;19.57;;
5052;SDS011;2545;50.892;5.740;2023-05-10T07:47:45;45.83;;;19.00;;
5052;SDS011;2545;50.892;5.740;2023-05-10T07:50:10;41.63;;;20.27;;
5052;SDS011;2545;50.892;5.740;2023-05-10T07:52:36;41.50;;;19.50;;
5052;SDS011;2545;50.892;5.740;2023-05-10T07:55:01;34.13;;;17.70;;
5052;SDS011;2545;50.892;5.740;2023-05-10T07:57:26;45.00;;;19.70;;
5052;SDS011;2545;50.892;5.740;2023-05-10T07:59:52;41.83;;;17.77;;
5052;SDS011;2545;50.892;5.740;2023-05-10T08:02:17;32.53;;;15.60;;
5052;SDS011;2545;50.892;5.740;2023-05-10T08:04:42;26.40;;;15.90;;
5052;SDS011;2545;50.892;5.740;2023-05-10T08:07:07;26.20;;;13.33;;
5052;SDS011;2545;50.892;5.740;2023-05-10T08:09:33;22.30;;;11.70;;
5052;SDS011;2545;50.892;5.740;2023-05-10T08:11:58;19.37;;;9.60;;
5052;SDS011;2545;50.892;5.740;2023-05-10T08:14:25;15.60;;;8.73;;
5052;SDS011;2545;50.892;5.740;2023-05-10T08:16:50;13.03;;;7.53;;
5052;SDS011;2545;50.892;5.740;2023-05-10T08:19:16;14.50;;;7.27;;
5052;SDS011;2545;50.892;5.740;2023-05-10T08:21:44;11.87;;;6.27;;
5052;SDS011;2545;50.892;5.740;2023-05-10T08:24:09;10.03;;;7.00;;
5052;SDS011;2545;50.892;5.740;2023-05-10T08:26:35;12.03;;;5.83;;
5052;SDS011;2545;50.892;5.740;2023-05-10T08:29:00;8.73;;;6.13;;
5052;SDS011;2545;50.892;5.740;2023-05-10T08:31:25;9.70;;;5.37;;
5052;SDS011;2545;50.892;5.740;2023-05-10T08:33:51;8.93;;;5.73;;
5052;SDS011;2545;50.892;5.740;2023-05-10T08:36:17;11.03;;;6.57;;
5052;SDS011;2545;50.892;5.740;2023-05-10T08:38:46;9.03;;;5.40;;
5052;SDS011;2545;50.892;5.740;2023-05-10T08:41:12;10.57;;;6.30;;
5052;SDS011;2545;50.892;5.740;2023-05-10T08:43:38;10.73;;;4.77;;
5052;SDS011;2545;50.892;5.740;2023-05-10T08:46:04;6.93;;;4.50;;
5052;SDS011;2545;50.892;5.740;2023-05-10T08:48:30;7.20;;;3.60;;
5052;SDS011;2545;50.892;5.740;2023-05-10T08:50:59;13.37;;;4.97;;
5052;SDS011;2545;50.892;5.740;2023-05-10T08:53:25;9.07;;;3.93;;
5052;SDS011;2545;50.892;5.740;2023-05-10T08:55:52;4.40;;;3.70;;
5052;SDS011;2545;50.892;5.740;2023-05-10T08:58:17;9.17;;;4.40;;
5052;SDS011;2545;50.892;5.740;2023-05-10T09:00:44;4.20;;;3.10;;
5052;SDS011;2545;50.892;5.740;2023-05-10T09:03:10;7.47;;;3.57;;
5052;SDS011;2545;50.892;5.740;2023-05-10T09:05:36;8.40;;;4.03;;
5052;SDS011;2545;50.892;5.740;2023-05-10T09:08:02;4.27;;;3.00;;
5052;SDS011;2545;50.892;5.740;2023-05-10T09:10:27;7.20;;;4.67;;
5052;SDS011;2545;50.892;5.740;2023-05-10T09:12:56;5.50;;;4.50;;
5052;SDS011;2545;50.892;5.740;2023-05-10T09:15:22;5.00;;;3.17;;
5052;SDS011;2545;50.892;5.740;2023-05-10T09:17:48;4.67;;;3.30;;
5052;SDS011;2545;50.892;5.740;2023-05-10T09:20:14;5.30;;;3.27;;
5052;SDS011;2545;50.892;5.740;2023-05-10T09:22:40;4.90;;;3.53;;
5052;SDS011;2545;50.892;5.740;2023-05-10T09:27:38;5.63;;;3.93;;
5052;SDS011;2545;50.892;5.740;2023-05-10T09:30:05;5.57;;;3.77;;
5052;SDS011;2545;50.892;5.740;2023-05-10T09:32:38;6.17;;;3.80;;
5052;SDS011;2545;50.892;5.740;2023-05-10T09:37:44;5.07;;;3.97;;
5052;SDS011;2545;50.892;5.740;2023-05-10T09:40:25;8.67;;;4.83;;
5052;SDS011;2545;50.892;5.740;2023-05-10T09:43:01;10.43;;;5.20;;
5052;SDS011;2545;50.892;5.740;2023-05-10T09:45:34;9.20;;;4.87;;
5052;SDS011;2545;50.892;5.740;2023-05-10T09:48:01;9.80;;;5.93;;
5052;SDS011;2545;50.892;5.740;2023-05-10T09:50:28;11.60;;;6.97;;
5052;SDS011;2545;50.892;5.740;2023-05-10T09:52:57;7.87;;;5.37;;
5052;SDS011;2545;50.892;5.740;2023-05-10T09:55:43;11.67;;;6.07;;
5052;SDS011;2545;50.892;5.740;2023-05-10T09:58:10;10.30;;;7.13;;
5052;SDS011;2545;50.892;5.740;2023-05-10T10:00:36;14.03;;;6.37;;
5052;SDS011;2545;50.892;5.740;2023-05-10T10:03:03;10.27;;;6.80;;
5052;SDS011;2545;50.892;5.740;2023-05-10T10:05:29;18.17;;;7.07;;
5052;SDS011;2545;50.892;5.740;2023-05-10T10:07:55;7.93;;;5.77;;
5052;SDS011;2545;50.892;5.740;2023-05-10T10:10:22;10.40;;;6.47;;
5052;SDS011;2545;50.892;5.740;2023-05-10T10:12:49;9.17;;;6.10;;
5052;SDS011;2545;50.892;5.740;2023-05-10T10:15:14;8.53;;;6.20;;
5052;SDS011;2545;50.892;5.740;2023-05-10T10:17:40;9.83;;;7.70;;
5052;SDS011;2545;50.892;5.740;2023-05-10T10:20:08;12.93;;;7.27;;
5052;SDS011;2545;50.892;5.740;2023-05-10T10:22:34;9.70;;;6.87;;
5052;SDS011;2545;50.892;5.740;2023-05-10T10:25:00;10.77;;;6.73;;
5052;SDS011;2545;50.892;5.740;2023-05-10T10:27:32;10.80;;;5.87;;
5052;SDS011;2545;50.892;5.740;2023-05-10T10:35:30;9.70;;;6.70;;
5052;SDS011;2545;50.892;5.740;2023-05-10T10:37:57;8.20;;;5.60;;
5052;SDS011;2545;50.892;5.740;2023-05-10T10:40:32;10.43;;;6.60;;
5052;SDS011;2545;50.892;5.740;2023-05-10T10:43:21;11.40;;;7.30;;
5052;SDS011;2545;50.892;5.740;2023-05-10T10:46:12;9.13;;;6.37;;
5052;SDS011;2545;50.892;5.740;2023-05-10T10:48:40;8.57;;;6.73;;
5052;SDS011;2545;50.892;5.740;2023-05-10T10:51:07;14.93;;;7.13;;
5052;SDS011;2545;50.892;5.740;2023-05-10T10:53:34;13.30;;;6.70;;
5052;SDS011;2545;50.892;5.740;2023-05-10T10:56:04;9.07;;;6.87;;
5052;SDS011;2545;50.892;5.740;2023-05-10T10:58:34;8.30;;;6.10;;
5052;SDS011;2545;50.892;5.740;2023-05-10T11:01:16;11.13;;;6.70;;
5052;SDS011;2545;50.892;5.740;2023-05-10T11:04:16;8.70;;;6.77;;
5052;SDS011;2545;50.892;5.740;2023-05-10T11:06:43;9.20;;;6.53;;
5052;SDS011;2545;50.892;5.740;2023-05-10T11:09:12;10.60;;;6.97;;
5052;SDS011;2545;50.892;5.740;2023-05-10T11:11:52;11.93;;;7.00;;
5052;SDS011;2545;50.892;5.740;2023-05-10T11:14:22;13.83;;;6.67;;
5052;SDS011;2545;50.892;5.740;2023-05-10T11:16:48;11.57;;;6.60;;
5052;SDS011;2545;50.892;5.740;2023-05-10T11:19:14;8.50;;;6.43;;
5052;SDS011;2545;50.892;5.740;2023-05-10T11:21:48;9.90;;;6.40;;
5052;SDS011;2545;50.892;5.740;2023-05-10T11:24:19;11.27;;;6.80;;
5052;SDS011;2545;50.892;5.740;2023-05-10T11:26:52;8.10;;;6.67;;
5052;SDS011;2545;50.892;5.740;2023-05-10T11:29:18;9.90;;;6.57;;
5052;SDS011;2545;50.892;5.740;2023-05-10T11:31:44;11.00;;;7.33;;
5052;SDS011;2545;50.892;5.740;2023-05-10T11:34:10;8.40;;;5.60;;
5052;SDS011;2545;50.892;5.740;2023-05-10T11:36:36;10.20;;;6.60;;
5052;SDS011;2545;50.892;5.740;2023-05-10T11:39:02;9.33;;;5.80;;
5052;SDS011;2545;50.892;5.740;2023-05-10T11:41:29;14.97;;;7.47;;
5052;SDS011;2545;50.892;5.740;2023-05-10T11:43:56;10.03;;;6.60;;
5052;SDS011;2545;50.892;5.740;2023-05-10T11:46:24;8.47;;;6.30;;
5052;SDS011;2545;50.892;5.740;2023-05-10T11:48:52;10.20;;;6.27;;
5052;SDS011;2545;50.892;5.740;2023-05-10T11:51:22;13.60;;;6.47;;
5052;SDS011;2545;50.892;5.740;2023-05-10T11:53:49;7.77;;;6.40;;
5052;SDS011;2545;50.892;5.740;2023-05-10T11:56:21;8.70;;;5.63;;
5052;SDS011;2545;50.892;5.740;2023-05-10T11:58:54;8.17;;;5.53;;
5052;SDS011;2545;50.892;5.740;2023-05-10T12:01:21;7.27;;;5.57;;
5052;SDS011;2545;50.892;5.740;2023-05-10T12:03:48;7.30;;;5.27;;
5052;SDS011;2545;50.892;5.740;2023-05-10T12:06:15;5.33;;;4.50;;
5052;SDS011;2545;50.892;5.740;2023-05-10T12:08:44;9.90;;;5.07;;
5052;SDS011;2545;50.892;5.740;2023-05-10T12:11:11;7.63;;;4.50;;
5052;SDS011;2545;50.892;5.740;2023-05-10T12:13:39;7.40;;;5.23;;
5052;SDS011;2545;50.892;5.740;2023-05-10T12:16:12;5.30;;;4.30;;
5052;SDS011;2545;50.892;5.740;2023-05-10T12:18:47;9.37;;;5.60;;
5052;SDS011;2545;50.892;5.740;2023-05-10T12:21:13;10.83;;;5.67;;
5052;SDS011;2545;50.892;5.740;2023-05-10T12:23:40;7.80;;;5.30;;
5052;SDS011;2545;50.892;5.740;2023-05-10T12:26:08;7.37;;;5.20;;
5052;SDS011;2545;50.892;5.740;2023-05-10T12:28:35;7.07;;;5.00;;
5052;SDS011;2545;50.892;5.740;2023-05-10T12:31:00;10.30;;;6.00;;
5052;SDS011;2545;50.892;5.740;2023-05-10T12:33:27;8.10;;;5.23;;
5052;SDS011;2545;50.892;5.740;2023-05-10T12:36:01;8.07;;;5.27;;
5052;SDS011;2545;50.892;5.740;2023-05-10T12:41:04;12.63;;;6.10;;
5052;SDS011;2545;50.892;5.740;2023-05-10T12:43:34;8.60;;;5.70;;
5052;SDS011;2545;50.892;5.740;2023-05-10T12:46:07;7.87;;;4.60;;
5052;SDS011;2545;50.892;5.740;2023-05-10T12:48:34;6.33;;;4.30;;
5052;SDS011;2545;50.892;5.740;2023-05-10T12:51:01;10.70;;;4.27;;
5052;SDS011;2545;50.892;5.740;2023-05-10T12:53:27;6.73;;;4.10;;
5052;SDS011;2545;50.892;5.740;2023-05-10T12:55:52;11.23;;;5.13;;
5052;SDS011;2545;50.892;5.740;2023-05-10T12:58:18;9.57;;;5.00;;
5052;SDS011;2545;50.892;5.740;2023-05-10T13:00:44;9.40;;;4.80;;
5052;SDS011;2545;50.892;5.740;2023-05-10T13:03:10;8.87;;;4.67;;
5052;SDS011;2545;50.892;5.740;2023-05-10T13:05:35;7.70;;;4.57;;
5052;SDS011;2545;50.892;5.740;2023-05-10T13:08:01;9.10;;;5.50;;
5052;SDS011;2545;50.892;5.740;2023-05-10T13:10:26;10.93;;;4.30;;
5052;SDS011;2545;50.892;5.740;2023-05-10T13:12:52;5.90;;;4.23;;
5052;SDS011;2545;50.892;5.740;2023-05-10T13:15:18;7.73;;;4.27;;
5052;SDS011;2545;50.892;5.740;2023-05-10T13:17:43;4.77;;;3.67;;
5052;SDS011;2545;50.892;5.740;2023-05-10T13:20:10;4.37;;;3.27;;
5052;SDS011;2545;50.892;5.740;2023-05-10T13:22:36;5.50;;;4.00;;
5052;SDS011;2545;50.892;5.740;2023-05-10T13:25:01;6.07;;;3.87;;
5052;SDS011;2545;50.892;5.740;2023-05-10T13:27:27;6.07;;;3.90;;
5052;SDS011;2545;50.892;5.740;2023-05-10T13:29:52;6.40;;;3.87;;
5052;SDS011;2545;50.892;5.740;2023-05-10T13:32:18;7.03;;;4.37;;
5052;SDS011;2545;50.892;5.740;2023-05-10T13:34:43;4.00;;;3.23;;
5052;SDS011;2545;50.892;5.740;2023-05-10T13:37:09;7.43;;;4.43;;
5052;SDS011;2545;50.892;5.740;2023-05-10T13:39:34;6.80;;;4.20;;
5052;SDS011;2545;50.892;5.740;2023-05-10T13:42:02;3.90;;;2.83;;
5052;SDS011;2545;50.892;5.740;2023-05-10T13:44:28;8.93;;;3.80;;
5052;SDS011;2545;50.892;5.740;2023-05-10T13:46:53;5.80;;;3.80;;
5052;SDS011;2545;50.892;5.740;2023-05-10T13:49:18;4.50;;;3.90;;
5052;SDS011;2545;50.892;5.740;2023-05-10T13:51:43;7.27;;;3.23;;
5052;SDS011;2545;50.892;5.740;2023-05-10T13:54:09;4.83;;;3.50;;
5052;SDS011;2545;50.892;5.740;2023-05-10T13:56:34;11.00;;;3.80;;
5052;SDS011;2545;50.892;5.740;2023-05-10T13:59:00;7.80;;;3.80;;
5052;SDS011;2545;50.892;5.740;2023-05-10T14:01:25;6.90;;;3.73;;
5052;SDS011;2545;50.892;5.740;2023-05-10T14:03:50;8.87;;;3.93;;
5052;SDS011;2545;50.892;5.740;2023-05-10T14:06:16;6.33;;;3.83;;
5052;SDS011;2545;50.892;5.740;2023-05-10T14:08:41;7.10;;;3.80;;
5052;SDS011;2545;50.892;5.740;2023-05-10T14:11:06;5.10;;;3.17;;
5052;SDS011;2545;50.892;5.740;2023-05-10T14:13:32;4.80;;;3.30;;
5052;SDS011;2545;50.892;5.740;2023-05-10T14:15:57;5.93;;;2.73;;
5052;SDS011;2545;50.892;5.740;2023-05-10T14:18:25;7.20;;;3.70;;
5052;SDS011;2545;50.892;5.740;2023-05-10T14:20:50;9.30;;;3.67;;
5052;SDS011;2545;50.892;5.740;2023-05-10T14:23:16;4.13;;;3.43;;
5052;SDS011;2545;50.892;5.740;2023-05-10T14:25:41;6.00;;;4.20;;
5052;SDS011;2545;50.892;5.740;2023-05-10T14:28:06;8.63;;;4.30;;
5052;SDS011;2545;50.892;5.740;2023-05-10T14:30:32;5.43;;;2.90;;
5052;SDS011;2545;50.892;5.740;2023-05-10T14:32:59;2.50;;;2.30;;
5052;SDS011;2545;50.892;5.740;2023-05-10T14:35:26;2.30;;;1.67;;
5052;SDS011;2545;50.892;5.740;2023-05-10T14:37:51;3.93;;;2.10;;
5052;SDS011;2545;50.892;5.740;2023-05-10T14:40:17;2.47;;;1.70;;
5052;SDS011;2545;50.892;5.740;2023-05-10T14:42:42;6.77;;;3.03;;
5052;SDS011;2545;50.892;5.740;2023-05-10T14:45:08;4.43;;;2.60;;
5052;SDS011;2545;50.892;5.740;2023-05-10T14:47:34;2.50;;;1.93;;
5052;SDS011;2545;50.892;5.740;2023-05-10T14:50:00;3.50;;;2.13;;
5052;SDS011;2545;50.892;5.740;2023-05-10T14:52:25;7.70;;;1.60;;
5052;SDS011;2545;50.892;5.740;2023-05-10T14:54:50;2.30;;;1.40;;
5052;SDS011;2545;50.892;5.740;2023-05-10T14:57:16;1.80;;;1.50;;
5052;SDS011;2545;50.892;5.740;2023-05-10T14:59:41;1.87;;;1.40;;
5052;SDS011;2545;50.892;5.740;2023-05-10T15:02:06;3.40;;;1.80;;
5052;SDS011;2545;50.892;5.740;2023-05-10T15:04:33;1.50;;;1.40;;
5052;SDS011;2545;50.892;5.740;2023-05-10T15:06:58;2.17;;;1.60;;
5052;SDS011;2545;50.892;5.740;2023-05-10T15:09:24;1.50;;;1.40;;
5052;SDS011;2545;50.892;5.740;2023-05-10T15:11:50;3.07;;;1.73;;
5052;SDS011;2545;50.892;5.740;2023-05-10T15:14:15;2.00;;;1.80;;
5052;SDS011;2545;50.892;5.740;2023-05-10T15:16:40;2.20;;;1.50;;
5052;SDS011;2545;50.892;5.740;2023-05-10T15:19:06;4.43;;;1.83;;
5052;SDS011;2545;50.892;5.740;2023-05-10T15:21:31;2.30;;;1.80;;
5052;SDS011;2545;50.892;5.740;2023-05-10T15:24:03;1.50;;;1.30;;
5052;SDS011;2545;50.892;5.740;2023-05-10T15:26:32;2.30;;;1.77;;
5052;SDS011;2545;50.892;5.740;2023-05-10T15:28:57;1.77;;;1.67;;
5052;SDS011;2545;50.892;5.740;2023-05-10T15:31:23;2.20;;;1.83;;